Time;durP1;ratioP1;P1;durP2;ratioP2;P2;SDS_P1;SDS_P2;PMS_P1;PMS_P2;Temp;Humidity;BMP_temperature;BMP_pressure;BME280_temperature;BME280_humidity;BME280_pressure;Samples;Min_cycle;Max_cycle;Signal;HPM_P1;HPM_P2
2021/06/01 00:02:13;;;;;;;5.17;4.70;;;12.10;99.90;;;;;;5045548;28;20182;-71
2021/06/01 00:04:39;;;;;;;8.37;4.47;;;12.00;99.90;;;;;;5036889;28;20182;-71
2021/06/01 00:07:04;;;;;;;7.47;4.20;;;12.10;99.90;;;;;;5046715;28;20173;-71
2021/06/01 00:09:30;;;;;;;5.17;4.67;;;12.10;99.90;;;;;;5048676;28;20170;-72
2021/06/01 00:11:56;;;;;;;5.30;4.80;;;12.10;99.90;;;;;;5045140;28;20602;-71
2021/06/01 00:14:21;;;;;;;6.10;4.33;;;12.00;99.90;;;;;;5044283;28;20208;-71
2021/06/01 00:16:49;;;;;;;4.90;4.50;;;12.00;99.90;;;;;;5048523;28;20260;-71
2021/06/01 00:19:16;;;;;;;5.20;4.70;;;12.00;99.90;;;;;;5048393;28;20194;-71
2021/06/01 00:21:41;;;;;;;4.10;3.80;;;11.90;99.90;;;;;;5046885;28;20440;-71
2021/06/01 00:24:08;;;;;;;5.63;5.10;;;11.90;99.90;;;;;;5048719;28;20432;-71
2021/06/01 00:26:35;;;;;;;4.77;4.37;;;11.90;99.90;;;;;;5046931;28;20502;-71
2021/06/01 00:29:01;;;;;;;4.93;4.37;;;11.90;99.90;;;;;;5047863;28;20431;-71
2021/06/01 00:31:27;;;;;;;5.20;4.80;;;11.80;99.90;;;;;;5046675;28;20441;-71
2021/06/01 00:33:52;;;;;;;4.07;3.70;;;11.70;99.90;;;;;;5051132;28;20236;-71
2021/06/01 00:36:18;;;;;;;5.13;4.50;;;11.70;99.90;;;;;;5043749;28;20507;-71
2021/06/01 00:38:43;;;;;;;5.90;4.80;;;11.60;99.90;;;;;;5047896;28;20206;-71
2021/06/01 00:41:09;;;;;;;4.50;4.10;;;11.50;99.90;;;;;;5051986;28;20325;-71
2021/06/01 00:43:35;;;;;;;5.07;4.50;;;11.60;99.90;;;;;;5051683;28;20220;-71
2021/06/01 00:46:00;;;;;;;4.57;4.17;;;11.50;99.90;;;;;;5047415;28;20524;-71
2021/06/01 00:48:26;;;;;;;4.93;4.43;;;11.40;99.90;;;;;;5048533;28;20512;-71
2021/06/01 00:50:52;;;;;;;6.90;4.80;;;11.40;99.90;;;;;;5049751;28;20205;-71
2021/06/01 00:53:18;;;;;;;5.40;4.90;;;11.30;99.90;;;;;;5048650;28;20282;-71
2021/06/01 00:55:43;;;;;;;5.20;4.67;;;11.30;99.90;;;;;;5051528;28;20177;-71
2021/06/01 00:58:09;;;;;;;4.73;4.33;;;11.30;99.90;;;;;;5052389;28;20518;-71
2021/06/01 01:03:20;;;;;;;6.90;4.60;;;11.30;99.90;;;;;;5050728;28;20288;-71
2021/06/01 01:05:49;;;;;;;5.20;4.80;;;11.30;99.90;;;;;;5050873;28;20848;-71
2021/06/01 01:08:56;;;;;;;4.80;4.40;;;11.30;99.90;;;;;;5051252;28;20510;-71
2021/06/01 01:11:39;;;;;;;5.30;4.80;;;11.20;99.90;;;;;;5050091;28;20545;-71
2021/06/01 01:14:10;;;;;;;5.10;4.60;;;11.10;99.90;;;;;;5052609;28;20427;-71
2021/06/01 01:16:40;;;;;;;5.23;4.73;;;11.10;99.90;;;;;;5050990;28;20514;-71
2021/06/01 01:19:11;;;;;;;4.73;4.40;;;11.10;99.90;;;;;;5049922;28;20542;-71
2021/06/01 01:21:47;;;;;;;5.10;4.53;;;11.00;99.90;;;;;;5049672;28;20745;-71
2021/06/01 01:24:41;;;;;;;4.43;4.03;;;11.00;99.90;;;;;;5044571;28;20427;-71
2021/06/01 01:27:31;;;;;;;4.87;4.47;;;11.00;99.90;;;;;;5044983;28;20458;-71
2021/06/01 01:30:00;;;;;;;5.83;4.50;;;10.90;99.90;;;;;;5052420;28;20424;-71
2021/06/01 01:32:34;;;;;;;4.90;4.50;;;10.90;99.90;;;;;;5048267;28;20419;-71
2021/06/01 01:35:01;;;;;;;5.20;4.80;;;10.80;99.90;;;;;;5050301;28;20447;-71
2021/06/01 01:37:28;;;;;;;5.07;4.57;;;10.90;99.90;;;;;;5048100;28;20463;-71
2021/06/01 01:39:58;;;;;;;4.77;4.33;;;10.90;99.90;;;;;;5048190;28;20440;-71
2021/06/01 01:42:26;;;;;;;5.47;5.07;;;10.80;99.90;;;;;;5043086;28;20413;-71
2021/06/01 01:44:54;;;;;;;5.40;4.90;;;10.80;99.90;;;;;;5048449;28;20416;-71
2021/06/01 01:50:01;;;;;;;5.60;5.10;;;10.70;99.90;;;;;;5051334;28;20884;-71
2021/06/01 01:52:27;;;;;;;5.10;4.60;;;10.70;99.90;;;;;;5047596;28;20437;-70
2021/06/01 01:54:56;;;;;;;4.70;4.20;;;10.60;99.90;;;;;;5046526;28;20431;-70
2021/06/01 01:57:24;;;;;;;4.70;4.30;;;10.60;99.90;;;;;;5041242;28;20420;-70
2021/06/01 01:59:51;;;;;;;4.80;4.40;;;10.60;99.90;;;;;;5050849;28;20423;-70
2021/06/01 02:02:17;;;;;;;7.43;5.40;;;10.60;99.90;;;;;;5046366;28;20476;-70
2021/06/01 02:04:44;;;;;;;4.87;4.50;;;10.60;99.90;;;;;;5052174;28;20427;-70
2021/06/01 02:07:10;;;;;;;4.50;4.10;;;10.60;99.90;;;;;;5051479;28;20427;-71
2021/06/01 02:09:36;;;;;;;5.13;4.73;;;10.50;99.90;;;;;;5048488;28;20606;-70
2021/06/01 02:12:02;;;;;;;4.93;3.90;;;10.50;99.90;;;;;;5049100;28;20435;-70
2021/06/01 02:14:28;;;;;;;5.70;5.20;;;10.50;99.90;;;;;;5049452;28;20438;-70
2021/06/01 02:16:54;;;;;;;6.10;5.50;;;10.50;99.90;;;;;;5049905;28;20468;-70
2021/06/01 02:19:21;;;;;;;4.90;4.50;;;10.50;99.90;;;;;;5048799;28;20216;-70
2021/06/01 02:22:21;;;;;;;5.20;4.80;;;10.40;99.90;;;;;;5046140;28;20505;-70
2021/06/01 02:25:10;;;;;;;4.87;4.47;;;10.40;99.90;;;;;;5047989;28;20432;-70
2021/06/01 02:28:17;;;;;;;5.10;4.60;;;10.30;99.90;;;;;;5039851;28;20436;-70
2021/06/01 02:31:05;;;;;;;4.50;4.20;;;10.30;99.90;;;;;;5003275;28;20469;-70
2021/06/01 02:33:33;;;;;;;4.03;3.73;;;10.30;99.90;;;;;;5050111;28;20435;-70
2021/06/01 02:36:03;;;;;;;5.30;4.90;;;10.20;99.90;;;;;;5049375;28;20731;-70
2021/06/01 02:38:32;;;;;;;5.17;4.77;;;10.20;99.90;;;;;;5046790;28;20457;-70
2021/06/01 02:41:01;;;;;;;5.07;4.50;;;10.20;99.90;;;;;;5048146;28;20814;-70
2021/06/01 02:43:28;;;;;;;7.10;5.10;;;10.20;99.90;;;;;;5048562;28;20425;-70
2021/06/01 02:45:55;;;;;;;5.27;4.77;;;10.10;99.90;;;;;;5046389;28;20440;-70
2021/06/01 02:48:23;;;;;;;6.17;4.60;;;10.20;99.90;;;;;;5048221;28;20443;-70
2021/06/01 02:50:51;;;;;;;5.03;4.53;;;10.20;99.90;;;;;;5049723;28;20818;-70
2021/06/01 02:53:17;;;;;;;5.83;5.33;;;10.20;99.90;;;;;;5049605;28;20427;-70
2021/06/01 02:55:44;;;;;;;4.57;4.20;;;10.20;99.90;;;;;;5047184;28;20431;-70
2021/06/01 02:58:11;;;;;;;6.20;5.33;;;10.20;99.90;;;;;;5050035;28;20455;-70
2021/06/01 03:00:40;;;;;;;4.80;4.40;;;10.10;99.90;;;;;;5045952;28;20427;-70
2021/06/01 03:03:06;;;;;;;4.90;4.40;;;10.00;99.90;;;;;;5042706;28;20484;-70
2021/06/01 03:05:33;;;;;;;4.70;4.30;;;10.10;99.90;;;;;;5047930;28;20419;-70
2021/06/01 03:08:28;;;;;;;5.57;5.10;;;10.00;99.90;;;;;;5051292;28;20462;-70
2021/06/01 03:11:02;;;;;;;4.97;4.03;;;10.00;99.90;;;;;;5046273;28;20451;-70
2021/06/01 03:13:28;;;;;;;4.90;4.50;;;10.00;99.90;;;;;;5048907;28;20758;-70
2021/06/01 03:15:54;;;;;;;5.83;5.30;;;10.00;99.90;;;;;;5050273;28;20763;-70
2021/06/01 03:18:21;;;;;;;6.10;4.73;;;10.00;99.90;;;;;;5047880;28;20459;-70
2021/06/01 03:20:47;;;;;;;7.07;5.80;;;10.00;99.90;;;;;;5045182;28;20423;-71
2021/06/01 03:23:13;;;;;;;9.70;4.80;;;10.00;99.90;;;;;;5047676;28;20439;-71
2021/06/01 03:25:40;;;;;;;6.10;5.50;;;10.00;99.90;;;;;;5045260;28;20423;-71
2021/06/01 03:28:06;;;;;;;5.40;4.90;;;10.00;99.90;;;;;;5046902;28;20968;-71
2021/06/01 03:30:33;;;;;;;6.03;4.80;;;10.00;99.90;;;;;;5048458;28;20925;-71
2021/06/01 03:32:59;;;;;;;6.27;5.00;;;10.00;99.90;;;;;;5049195;28;20432;-71
2021/06/01 03:35:25;;;;;;;5.57;5.07;;;10.00;99.90;;;;;;5047588;28;20913;-71
2021/06/01 03:37:52;;;;;;;5.37;4.90;;;10.00;99.90;;;;;;5048334;28;20537;-71
2021/06/01 03:40:18;;;;;;;6.13;5.53;;;10.00;99.90;;;;;;5049472;28;20434;-72
2021/06/01 03:42:44;;;;;;;6.37;5.73;;;10.00;99.90;;;;;;5044998;28;20427;-71
2021/06/01 03:45:10;;;;;;;6.17;5.63;;;10.00;99.90;;;;;;5049997;28;20276;-71
2021/06/01 03:47:36;;;;;;;5.17;4.77;;;10.00;99.90;;;;;;5048441;28;20432;-72
2021/06/01 03:50:04;;;;;;;7.00;6.13;;;10.00;99.90;;;;;;5045373;28;20830;-71
2021/06/01 03:52:30;;;;;;;6.73;6.10;;;10.00;99.90;;;;;;5044575;28;20450;-71
2021/06/01 03:54:56;;;;;;;7.13;6.27;;;10.00;99.90;;;;;;5064746;28;20434;-71
2021/06/01 03:57:22;;;;;;;6.47;5.60;;;10.00;99.90;;;;;;5048334;28;20774;-71
2021/06/01 03:59:47;;;;;;;6.13;5.50;;;10.10;99.90;;;;;;5051176;28;20439;-71
2021/06/01 04:02:13;;;;;;;5.60;5.20;;;10.10;99.90;;;;;;5046653;28;20260;-71
2021/06/01 04:04:39;;;;;;;5.20;4.83;;;10.20;99.90;;;;;;5051226;28;20173;-71
2021/06/01 04:07:04;;;;;;;6.60;5.90;;;10.20;99.90;;;;;;5051608;28;20257;-71
2021/06/01 04:09:30;;;;;;;5.20;4.70;;;10.20;99.90;;;;;;5052892;28;20181;-71
2021/06/01 04:11:56;;;;;;;8.37;4.40;;;10.20;99.90;;;;;;5050753;28;20182;-71
2021/06/01 04:14:22;;;;;;;6.80;5.07;;;10.20;99.90;;;;;;5053844;28;20439;-71
2021/06/01 04:16:48;;;;;;;9.73;5.13;;;10.30;99.90;;;;;;5048883;28;20489;-71
2021/06/01 04:19:14;;;;;;;5.50;4.63;;;10.30;99.90;;;;;;5051858;28;20209;-71
2021/06/01 04:21:42;;;;;;;5.90;5.30;;;10.30;99.90;;;;;;5050407;28;20177;-71
2021/06/01 04:24:11;;;;;;;5.87;5.33;;;10.30;99.90;;;;;;5050263;28;20435;-71
2021/06/01 04:26:38;;;;;;;6.03;5.40;;;10.30;99.90;;;;;;5049649;28;20908;-72
2021/06/01 04:29:05;;;;;;;8.27;5.37;;;10.40;99.90;;;;;;5049220;28;20439;-72
2021/06/01 04:31:30;;;;;;;6.80;6.00;;;10.40;99.90;;;;;;5048949;28;20468;-71
2021/06/01 04:33:56;;;;;;;6.43;5.67;;;10.50;99.90;;;;;;5047200;28;20435;-72
2021/06/01 04:36:24;;;;;;;6.90;6.13;;;10.50;99.90;;;;;;5040754;28;20190;-72
2021/06/01 04:38:50;;;;;;;8.40;5.50;;;10.60;99.90;;;;;;5046042;28;20193;-72
2021/06/01 04:41:15;;;;;;;6.67;5.87;;;10.60;99.90;;;;;;5048625;28;20461;-72
2021/06/01 04:43:42;;;;;;;7.90;5.60;;;10.70;99.90;;;;;;5049731;28;20227;-72
2021/06/01 04:46:07;;;;;;;6.57;5.30;;;10.70;99.90;;;;;;5046957;28;20463;-72
2021/06/01 04:48:33;;;;;;;6.67;5.83;;;10.80;99.90;;;;;;5052576;28;20691;-71
2021/06/01 04:50:58;;;;;;;7.33;6.27;;;10.80;99.90;;;;;;5042264;28;20529;-71
2021/06/01 04:53:24;;;;;;;7.27;6.37;;;10.90;99.90;;;;;;5052775;28;20246;-71
2021/06/01 04:55:50;;;;;;;6.73;5.60;;;10.90;99.90;;;;;;5049891;28;20184;-71
2021/06/01 04:58:16;;;;;;;6.80;5.97;;;11.00;99.90;;;;;;5048651;28;20596;-71
2021/06/01 05:00:41;;;;;;;8.07;5.80;;;11.10;99.90;;;;;;5047204;28;20177;-71
2021/06/01 05:03:07;;;;;;;7.80;6.43;;;11.10;99.90;;;;;;5046034;28;20219;-71
2021/06/01 05:05:33;;;;;;;9.53;6.70;;;11.20;99.90;;;;;;5047536;28;20261;-71
2021/06/01 05:07:59;;;;;;;8.00;5.90;;;11.30;99.90;;;;;;5048671;28;20235;-71
2021/06/01 05:10:24;;;;;;;10.77;6.77;;;11.30;99.90;;;;;;5050255;28;20451;-71
2021/06/01 05:12:50;;;;;;;10.53;7.07;;;11.40;99.90;;;;;;5048158;28;20188;-71
2021/06/01 05:15:16;;;;;;;8.20;7.10;;;11.40;99.90;;;;;;5049230;28;20189;-72
2021/06/01 05:17:41;;;;;;;12.77;7.70;;;11.50;99.90;;;;;;5046049;28;20705;-71
2021/06/01 05:20:08;;;;;;;9.07;7.00;;;11.60;99.90;;;;;;5050157;28;20618;-71
2021/06/01 05:22:34;;;;;;;8.10;7.10;;;11.70;99.90;;;;;;5046368;28;20556;-71
2021/06/01 05:25:00;;;;;;;11.50;8.47;;;11.80;99.90;;;;;;5049982;28;20525;-71
2021/06/01 05:27:26;;;;;;;9.97;8.30;;;11.90;99.90;;;;;;5043955;28;20494;-71
2021/06/01 05:29:56;;;;;;;10.17;7.67;;;12.00;99.90;;;;;;5045331;28;20434;-71
2021/06/01 05:35:16;;;;;;;9.40;6.70;;;12.30;99.90;;;;;;5043809;28;20436;-71
2021/06/01 05:37:41;;;;;;;6.40;5.43;;;12.40;99.90;;;;;;5049051;28;21419;-71
2021/06/01 05:40:07;;;;;;;6.97;5.70;;;12.50;99.90;;;;;;5047899;28;20509;-71
2021/06/01 05:42:33;;;;;;;5.63;5.07;;;12.60;99.90;;;;;;5042339;28;20174;-71
2021/06/01 05:44:59;;;;;;;6.40;5.80;;;12.70;99.90;;;;;;5046735;28;20933;-71
2021/06/01 05:47:25;;;;;;;6.63;5.00;;;12.80;99.90;;;;;;5040138;28;20607;-71
2021/06/01 05:49:50;;;;;;;6.83;5.40;;;13.00;99.90;;;;;;5042467;28;20278;-71
2021/06/01 05:52:16;;;;;;;6.90;5.20;;;13.10;99.90;;;;;;5040349;28;20443;-71
2021/06/01 05:54:41;;;;;;;6.17;5.53;;;13.30;99.90;;;;;;5044417;28;20185;-71
2021/06/01 05:57:08;;;;;;;8.83;5.80;;;13.40;99.90;;;;;;5047961;28;20606;-71
2021/06/01 05:59:33;;;;;;;6.17;5.40;;;13.60;99.90;;;;;;5049074;28;20854;-72
2021/06/01 06:01:59;;;;;;;6.70;6.00;;;13.80;99.90;;;;;;5045227;28;20447;-72
2021/06/01 06:04:25;;;;;;;9.30;5.80;;;13.90;99.90;;;;;;5041324;28;20619;-71
2021/06/01 06:06:51;;;;;;;6.10;5.50;;;14.10;99.90;;;;;;5041650;28;20173;-72
2021/06/01 06:09:16;;;;;;;6.47;5.87;;;14.30;99.90;;;;;;5051056;28;20264;-71
2021/06/01 06:11:42;;;;;;;7.23;5.97;;;14.40;99.90;;;;;;5048284;28;20173;-71
2021/06/01 06:14:07;;;;;;;5.17;4.77;;;14.60;99.90;;;;;;5053087;28;20193;-71
2021/06/01 06:16:45;;;;;;;7.33;5.00;;;14.70;99.90;;;;;;5049289;28;20181;-72
2021/06/01 06:19:11;;;;;;;7.60;5.63;;;14.80;99.90;;;;;;5050689;28;20265;-72
2021/06/01 06:21:36;;;;;;;7.37;5.43;;;14.90;99.90;;;;;;5049391;28;20455;-71
2021/06/01 06:24:04;;;;;;;6.17;5.50;;;15.00;99.90;;;;;;5049057;28;20181;-72
2021/06/01 06:26:30;;;;;;;5.33;4.90;;;15.10;99.90;;;;;;5049678;28;20177;-72
2021/06/01 06:28:55;;;;;;;7.30;5.10;;;15.30;99.90;;;;;;5048642;28;20833;-72
2021/06/01 06:31:21;;;;;;;5.07;4.57;;;15.30;99.90;;;;;;5046516;28;20189;-71
2021/06/01 06:33:46;;;;;;;5.13;4.80;;;15.40;99.90;;;;;;5043686;28;20193;-71
2021/06/01 06:36:12;;;;;;;4.73;4.30;;;15.50;99.90;;;;;;5044808;28;20629;-72
2021/06/01 06:38:38;;;;;;;5.00;4.60;;;15.60;99.90;;;;;;5048592;28;20189;-72
2021/06/01 06:41:14;;;;;;;5.80;4.80;;;15.70;99.90;;;;;;5050329;28;20251;-71
2021/06/01 06:43:45;;;;;;;5.50;4.63;;;15.80;99.90;;;;;;5048560;28;20533;-72
2021/06/01 06:46:37;;;;;;;7.20;5.00;;;15.90;99.90;;;;;;5043508;28;20436;-71
2021/06/01 06:49:04;;;;;;;9.93;5.20;;;16.10;99.90;;;;;;5047981;28;20505;-71
2021/06/01 06:51:30;;;;;;;4.73;4.33;;;16.20;99.90;;;;;;5045261;28;20504;-72
2021/06/01 06:53:57;;;;;;;5.37;4.87;;;16.30;99.90;;;;;;5045971;28;20424;-72
2021/06/01 06:56:27;;;;;;;6.30;5.20;;;16.40;99.90;;;;;;5045691;28;20428;-71
2021/06/01 06:58:54;;;;;;;4.37;4.00;;;16.50;99.90;;;;;;5047187;28;20440;-71
2021/06/01 07:01:20;;;;;;;5.80;4.60;;;16.70;99.90;;;;;;5043360;28;20425;-71
2021/06/01 07:03:46;;;;;;;5.70;4.07;;;16.80;99.90;;;;;;5045299;28;20424;-72
2021/06/01 07:06:13;;;;;;;4.83;4.43;;;16.90;99.90;;;;;;5046300;28;20432;-71
2021/06/01 07:08:39;;;;;;;6.23;4.37;;;17.00;99.90;;;;;;5048132;28;20424;-71
2021/06/01 07:11:05;;;;;;;7.33;4.17;;;17.20;99.90;;;;;;5047326;28;20440;-71
2021/06/01 07:13:49;;;;;;;4.30;3.90;;;17.40;99.90;;;;;;5047974;28;20174;-71
2021/06/01 07:16:15;;;;;;;4.37;4.00;;;17.60;99.90;;;;;;5045642;28;20399;-71
2021/06/01 07:18:41;;;;;;;4.23;3.83;;;17.80;99.90;;;;;;5046820;28;20569;-71
2021/06/01 07:21:11;;;;;;;4.03;3.63;;;17.90;99.90;;;;;;5048683;28;20478;-71
2021/06/01 07:23:38;;;;;;;4.40;4.00;;;18.00;99.90;;;;;;5047102;28;20430;-72
2021/06/01 07:26:05;;;;;;;4.10;3.70;;;18.10;99.90;;;;;;5046617;28;20811;-71
2021/06/01 07:28:31;;;;;;;4.40;3.73;;;18.20;99.90;;;;;;5046471;28;20855;-71
2021/06/01 07:31:04;;;;;;;3.37;3.07;;;18.30;99.90;;;;;;5044030;28;20516;-71
2021/06/01 07:33:30;;;;;;;4.63;3.13;;;18.40;99.90;;;;;;5047660;28;20188;-71
2021/06/01 07:35:55;;;;;;;3.20;3.00;;;18.50;99.90;;;;;;5045301;28;20909;-71
2021/06/01 07:38:21;;;;;;;3.17;3.07;;;18.50;99.90;;;;;;5048593;28;20521;-71
2021/06/01 07:40:47;;;;;;;4.73;3.43;;;18.60;99.90;;;;;;5049807;28;20170;-71
2021/06/01 07:43:12;;;;;;;4.63;3.50;;;18.60;99.90;;;;;;5048313;28;20191;-71
2021/06/01 07:45:38;;;;;;;3.77;3.40;;;18.70;99.90;;;;;;5043782;28;20185;-71
2021/06/01 07:48:04;;;;;;;4.20;3.57;;;19.00;99.90;;;;;;5051215;28;20267;-71
2021/06/01 07:50:30;;;;;;;3.83;3.63;;;19.10;99.90;;;;;;5051218;28;20177;-71
2021/06/01 07:52:56;;;;;;;6.30;4.37;;;19.10;99.90;;;;;;5050770;28;20859;-71
2021/06/01 07:55:21;;;;;;;3.73;3.50;;;19.10;99.90;;;;;;5048771;28;20238;-71
2021/06/01 07:57:47;;;;;;;3.40;3.20;;;19.10;99.90;;;;;;5051172;28;20580;-71
2021/06/01 08:00:14;;;;;;;4.50;4.10;;;19.20;99.90;;;;;;5052020;28;20174;-72
2021/06/01 08:02:40;;;;;;;3.70;3.07;;;19.30;99.90;;;;;;5048813;28;20162;-71
2021/06/01 08:05:06;;;;;;;3.27;3.07;;;19.40;99.90;;;;;;5051020;28;20733;-71
2021/06/01 08:07:34;;;;;;;3.40;3.10;;;19.50;99.90;;;;;;5047302;28;20427;-71
2021/06/01 08:10:00;;;;;;;4.07;3.40;;;19.60;99.90;;;;;;5050255;28;20428;-71
2021/06/01 08:12:26;;;;;;;3.60;3.40;;;19.70;99.90;;;;;;5046303;28;20466;-71
2021/06/01 08:14:52;;;;;;;3.50;3.20;;;19.80;99.90;;;;;;5048782;28;20523;-71
2021/06/01 08:17:18;;;;;;;5.30;3.57;;;19.80;99.90;;;;;;5047549;28;20208;-71
2021/06/01 08:19:45;;;;;;;4.53;3.70;;;19.80;99.90;;;;;;5048468;28;20475;-71
2021/06/01 08:22:19;;;;;;;3.60;3.40;;;19.80;99.90;;;;;;5053577;28;20192;-71
2021/06/01 08:24:45;;;;;;;3.80;3.50;;;19.80;99.90;;;;;;5052730;28;20430;-72
2021/06/01 08:27:10;;;;;;;5.00;3.70;;;19.90;99.90;;;;;;5051504;28;20428;-71
2021/06/01 08:29:36;;;;;;;4.80;3.37;;;20.00;99.90;;;;;;5053021;28;20499;-71
2021/06/01 08:32:02;;;;;;;4.03;3.73;;;20.00;99.90;;;;;;5048937;28;20247;-71
2021/06/01 08:34:29;;;;;;;3.57;3.37;;;20.10;99.90;;;;;;5053886;28;20181;-71
2021/06/01 08:36:54;;;;;;;3.60;3.30;;;20.10;99.90;;;;;;5048642;28;20884;-71
2021/06/01 08:39:26;;;;;;;4.07;3.53;;;20.30;99.90;;;;;;5049157;28;20660;-71
2021/06/01 08:41:53;;;;;;;5.40;3.20;;;20.40;99.90;;;;;;5046898;28;20272;-71
2021/06/01 08:44:19;;;;;;;4.53;4.00;;;20.50;99.90;;;;;;5047316;28;20425;-71
2021/06/01 08:46:49;;;;;;;3.40;3.20;;;20.60;99.90;;;;;;5040682;28;20435;-71
2021/06/01 08:49:16;;;;;;;3.83;3.53;;;20.60;99.90;;;;;;5050279;28;20447;-71
2021/06/01 08:51:41;;;;;;;4.13;3.37;;;20.80;99.90;;;;;;5048532;28;20497;-71
2021/06/01 08:54:07;;;;;;;3.20;3.00;;;20.90;99.90;;;;;;5049031;28;20443;-71
2021/06/01 08:56:33;;;;;;;3.03;2.83;;;20.90;99.90;;;;;;5047560;28;20258;-72
2021/06/01 08:58:59;;;;;;;4.50;3.50;;;20.90;99.90;;;;;;5045840;28;20455;-71
2021/06/01 09:01:24;;;;;;;3.77;3.57;;;20.90;99.90;;;;;;5045133;28;20204;-71
2021/06/01 09:03:55;;;;;;;3.10;2.90;;;21.00;99.90;;;;;;5049897;28;20240;-71
2021/06/01 09:06:40;;;;;;;3.50;3.27;;;21.00;99.90;;;;;;5048576;28;20177;-71
2021/06/01 09:22:35;;;;;;;4.13;3.77;;;21.20;99.90;;;;;;5045189;28;20830;-72
2021/06/01 09:25:30;;;;;;;3.03;2.93;;;21.30;99.90;;;;;;5046627;28;20753;-71
2021/06/01 09:27:57;;;;;;;3.90;3.60;;;21.40;99.90;;;;;;5046238;28;20432;-72
2021/06/01 09:30:59;;;;;;;3.03;2.80;;;21.60;99.90;;;;;;5047064;28;20443;-72
2021/06/01 09:33:30;;;;;;;4.83;3.47;;;21.60;99.90;;;;;;5042943;28;20992;-71
2021/06/01 09:36:01;;;;;;;3.50;3.23;;;21.60;99.90;;;;;;5042223;28;20443;-72
2021/06/01 09:38:28;;;;;;;5.77;3.40;;;21.70;99.90;;;;;;5047151;28;20462;-72
2021/06/01 09:41:18;;;;;;;4.77;3.97;;;21.70;99.90;;;;;;5041093;28;20420;-71
2021/06/01 09:43:55;;;;;;;3.40;3.10;;;21.80;99.90;;;;;;5049441;28;20431;-72
2021/06/01 09:46:26;;;;;;;2.90;2.70;;;21.90;99.90;;;;;;5047342;28;20470;-73
2021/06/01 09:48:54;;;;;;;9.33;3.20;;;22.00;99.90;;;;;;5045686;28;20829;-72
2021/06/01 09:51:35;;;;;;;3.10;2.90;;;22.10;99.90;;;;;;5046625;28;20448;-72
2021/06/01 09:54:41;;;;;;;5.53;3.80;;;22.20;99.90;;;;;;5046002;28;20806;-72
2021/06/01 09:57:18;;;;;;;3.63;3.37;;;22.30;99.90;;;;;;5049261;28;20518;-72
2021/06/01 10:00:15;;;;;;;6.00;3.23;;;22.50;99.90;;;;;;5042196;28;20451;-72
2021/06/01 10:02:42;;;;;;;3.87;3.57;;;22.60;99.90;;;;;;5037782;28;20436;-72
2021/06/01 10:05:20;;;;;;;3.03;2.83;;;22.70;99.90;;;;;;5045832;28;20526;-72
2021/06/01 10:07:48;;;;;;;3.70;3.40;;;22.80;99.90;;;;;;5043815;28;20951;-72
2021/06/01 10:10:27;;;;;;;3.40;3.10;;;22.80;99.90;;;;;;5045166;28;20434;-73
2021/06/01 10:12:58;;;;;;;3.27;3.03;;;23.10;99.90;;;;;;5040482;28;20470;-72
2021/06/01 10:15:26;;;;;;;3.73;3.30;;;23.20;99.90;;;;;;5043458;28;20441;-73
2021/06/01 10:17:52;;;;;;;3.63;3.43;;;23.30;99.90;;;;;;5044444;28;20922;-72
2021/06/01 10:20:21;;;;;;;3.40;3.10;;;23.50;99.90;;;;;;5047130;28;20432;-73
2021/06/01 10:22:47;;;;;;;3.30;3.00;;;23.60;99.90;;;;;;5043886;28;20423;-72
2021/06/01 10:25:15;;;;;;;4.40;4.00;;;23.60;99.90;;;;;;5047819;28;20463;-73
2021/06/01 10:27:42;;;;;;;5.97;3.77;;;23.60;99.90;;;;;;5043758;28;20991;-72
2021/06/01 10:30:09;;;;;;;3.60;3.30;;;23.70;99.90;;;;;;5045080;28;20428;-72
2021/06/01 10:32:39;;;;;;;3.60;3.23;;;23.70;99.90;;;;;;5043113;28;20446;-73
2021/06/01 10:35:09;;;;;;;3.63;3.40;;;24.00;99.90;;;;;;5044989;28;20435;-73
2021/06/01 10:52:01;;;;;;;4.10;3.80;;;24.60;99.90;;;;;;5041478;28;20431;-73
2021/06/01 10:54:53;;;;;;;4.70;4.30;;;24.50;99.90;;;;;;5044213;28;21610;-73
2021/06/01 10:57:21;;;;;;;4.17;3.87;;;24.70;99.90;;;;;;5042646;28;20452;-73
2021/06/01 11:02:28;;;;;;;4.17;3.87;;;24.70;99.90;;;;;;5046499;28;20434;-73
2021/06/01 11:05:16;;;;;;;3.60;3.40;;;24.90;99.90;;;;;;5042352;28;20435;-73
2021/06/01 11:08:03;;;;;;;3.70;3.50;;;25.00;99.90;;;;;;5047489;28;20170;-72
2021/06/01 11:10:46;;;;;;;4.90;3.50;;;25.00;99.30;;;;;;5044068;28;20423;-73
2021/06/01 11:13:32;;;;;;;3.73;3.43;;;25.00;99.30;;;;;;5045015;28;20886;-73
2021/06/01 11:15:59;;;;;;;5.43;3.77;;;25.10;99.80;;;;;;5049066;28;20542;-73
2021/06/01 11:18:31;;;;;;;3.90;3.57;;;25.40;99.90;;;;;;5045201;28;20601;-73
2021/06/01 11:21:33;;;;;;;3.83;3.20;;;25.50;98.10;;;;;;5042294;28;20509;-73
2021/06/01 11:35:29;;;;;;;3.80;3.60;;;25.80;98.80;;;;;;5046488;28;20489;-73
2021/06/01 11:43:10;;;;;;;4.50;3.57;;;25.60;97.60;;;;;;5047833;28;20431;-73
2021/06/01 11:51:29;;;;;;;3.33;3.17;;;26.10;97.50;;;;;;5046832;28;20594;-73
2021/06/01 11:54:03;;;;;;;5.10;4.60;;;26.20;98.20;;;;;;5049637;28;20434;-74
2021/06/01 11:56:42;;;;;;;8.63;4.03;;;26.20;99.80;;;;;;5042253;28;20472;-73
2021/06/01 12:20:57;;;;;;;3.90;3.60;;;26.70;96.70;;;;;;5041772;28;20438;-72
2021/06/01 12:23:33;;;;;;;4.23;3.10;;;27.00;97.00;;;;;;5045163;28;20515;-72
2021/06/01 12:26:21;;;;;;;4.10;3.80;;;27.00;97.50;;;;;;5047380;28;20884;-72
2021/06/01 12:31:47;;;;;;;3.10;2.80;;;27.00;96.40;;;;;;5048714;28;20526;-71
2021/06/01 12:34:17;;;;;;;4.43;3.43;;;26.80;96.40;;;;;;5052402;28;20536;-71
2021/06/01 12:42:59;;;;;;;3.47;3.23;;;26.50;95.60;;;;;;5043011;28;20562;-75
2021/06/01 13:23:23;;;;;;;3.80;3.50;;;27.70;95.60;;;;;;5048850;28;20443;-75
2021/06/01 13:47:01;;;;;;;5.73;5.00;;;28.30;95.00;;;;;;5034856;28;20423;-74
2021/06/01 13:49:40;;;;;;;4.10;3.80;;;28.30;94.40;;;;;;5045201;28;20451;-73
2021/06/01 13:52:34;;;;;;;4.67;4.27;;;28.20;95.70;;;;;;5041162;28;20764;-74
2021/06/01 13:55:24;;;;;;;4.77;4.30;;;28.20;93.30;;;;;;5039990;28;20504;-73
2021/06/01 14:30:05;;;;;;;4.03;3.73;;;26.80;94.50;;;;;;5035943;28;20485;-71
2021/06/01 14:54:46;;;;;;;4.80;3.90;;;26.40;95.10;;;;;;5043984;28;20468;-72
2021/06/01 15:09:20;;;;;;;4.27;3.87;;;26.90;95.10;;;;;;5045081;28;20422;-76
2021/06/01 15:49:35;;;;;;;4.00;3.60;;;25.60;96.80;;;;;;5041497;28;20446;-76
2021/06/01 15:52:39;;;;;;;4.47;4.03;;;25.50;96.40;;;;;;5041978;28;20474;-76
2021/06/01 16:11:35;;;;;;;4.40;3.77;;;24.40;98.70;;;;;;5042875;28;20507;-70
2021/06/01 16:33:16;;;;;;;3.20;2.50;;;23.40;98.00;;;;;;5051503;28;20572;-70
2021/06/01 17:03:32;;;;;;;3.27;2.17;;;22.60;96.20;;;;;;5042754;28;20412;-70
2021/06/01 17:06:11;;;;;;;2.33;2.17;;;22.60;97.00;;;;;;5050361;28;21051;-70
2021/06/01 17:11:20;;;;;;;2.20;2.10;;;22.60;95.30;;;;;;5046991;28;20489;-70
2021/06/01 17:13:57;;;;;;;2.00;1.90;;;22.50;95.60;;;;;;5049062;28;21114;-70
2021/06/01 17:16:45;;;;;;;2.33;2.23;;;22.40;96.00;;;;;;5047463;28;20911;-70
2021/06/01 17:19:52;;;;;;;1.70;1.60;;;22.30;95.00;;;;;;5050625;28;20470;-70
2021/06/01 17:30:35;;;;;;;1.50;1.40;;;21.90;94.50;;;;;;5044658;28;20793;-69
2021/06/01 17:35:46;;;;;;;1.57;1.47;;;21.80;91.80;;;;;;5041122;28;20963;-70
2021/06/01 17:38:12;;;;;;;2.43;1.70;;;21.70;90.90;;;;;;5051485;28;20502;-69
2021/06/01 17:40:40;;;;;;;2.50;1.23;;;21.60;90.30;;;;;;5048158;28;20853;-69
2021/06/01 17:43:08;;;;;;;1.90;1.80;;;21.50;89.30;;;;;;5047765;28;20427;-69
2021/06/01 17:45:38;;;;;;;1.87;1.23;;;21.40;91.10;;;;;;5044652;28;20897;-71
2021/06/01 17:48:25;;;;;;;1.73;1.63;;;21.40;91.10;;;;;;5040114;28;20505;-70
2021/06/01 17:50:52;;;;;;;1.70;1.60;;;21.40;91.00;;;;;;5044942;28;20440;-71
2021/06/01 17:53:20;;;;;;;1.40;1.30;;;21.30;91.30;;;;;;5046567;28;20442;-70
2021/06/01 17:55:49;;;;;;;2.63;1.57;;;21.30;91.40;;;;;;5048470;28;20442;-70
2021/06/01 17:58:16;;;;;;;1.40;1.40;;;21.40;87.90;;;;;;5048992;28;20944;-69
2021/06/01 18:00:43;;;;;;;1.30;1.20;;;21.20;89.60;;;;;;5049846;28;20436;-70
2021/06/01 18:03:10;;;;;;;4.53;1.77;;;21.20;87.30;;;;;;5042156;28;20909;-69
2021/06/01 18:05:38;;;;;;;1.40;1.30;;;21.10;85.40;;;;;;5045293;28;20439;-69
2021/06/01 18:08:07;;;;;;;1.60;1.50;;;21.00;86.00;;;;;;5045479;28;20527;-70
2021/06/01 19:06:45;;;;;;;1.60;1.40;;;19.30;81.90;;;;;;5040928;28;20189;-69
2021/06/01 19:24:46;;;;;;;1.20;1.20;;;18.80;91.50;;;;;;5042244;28;20929;-70
2021/06/01 19:52:09;;;;;;;1.43;1.33;;;18.10;96.60;;;;;;5042056;28;20931;-70
2021/06/01 19:54:35;;;;;;;1.77;1.67;;;18.00;96.60;;;;;;5045365;28;20455;-69
2021/06/01 19:57:01;;;;;;;2.43;1.40;;;18.00;97.30;;;;;;5044426;28;20479;-70
2021/06/01 19:59:28;;;;;;;1.63;1.53;;;18.00;96.80;;;;;;5045415;28;20455;-70
2021/06/01 20:01:54;;;;;;;4.50;1.37;;;17.90;97.40;;;;;;5042387;28;20432;-70
2021/06/01 20:04:21;;;;;;;1.87;1.77;;;17.90;97.70;;;;;;5047180;28;20439;-70
2021/06/01 20:06:48;;;;;;;1.33;1.30;;;17.80;98.20;;;;;;5043944;28;20428;-70
2021/06/01 20:09:18;;;;;;;1.50;1.40;;;17.70;98.50;;;;;;5040244;28;20431;-69